Time;durP1;ratioP1;P1;durP2;ratioP2;P2;SDS_P1;SDS_P2;PMS_P1;PMS_P2;Temp;Humidity;BMP_temperature;BMP_pressure;BME280_temperature;BME280_humidity;BME280_pressure;Samples;Min_cycle;Max_cycle;Signal;HPM_P1;HPM_P2
2021/11/13 00:02:22;;;;;;;25.63;18.83;;;9.60;96.40;;;;;;4907475;29;20048;-83
2021/11/13 00:04:48;;;;;;;24.93;18.60;;;9.60;96.40;;;;;;4908662;29;20407;-82
2021/11/13 00:07:14;;;;;;;26.97;19.63;;;9.70;96.30;;;;;;4891357;29;20051;-82
2021/11/13 00:09:40;;;;;;;25.33;19.43;;;9.60;96.30;;;;;;4907155;29;20040;-82
2021/11/13 00:12:06;;;;;;;26.10;19.67;;;9.60;96.50;;;;;;4907243;29;20139;-84
2021/11/13 00:14:32;;;;;;;28.40;20.13;;;9.60;96.60;;;;;;4907330;29;20045;-82
2021/11/13 00:16:59;;;;;;;25.73;19.63;;;9.60;96.80;;;;;;4907528;29;20037;-83
2021/11/13 00:19:25;;;;;;;28.30;20.50;;;9.50;97.00;;;;;;4905633;29;20037;-82
2021/11/13 00:21:51;;;;;;;30.73;21.20;;;9.50;97.20;;;;;;4904186;29;20033;-79
2021/11/13 00:24:17;;;;;;;29.37;20.03;;;9.50;97.30;;;;;;4907342;29;20047;-83
2021/11/13 00:26:43;;;;;;;27.67;20.97;;;9.50;97.40;;;;;;4908126;29;20088;-84
2021/11/13 00:29:08;;;;;;;30.03;20.93;;;9.40;97.50;;;;;;4908066;29;20049;-83
2021/11/13 00:31:34;;;;;;;29.33;20.80;;;9.40;97.60;;;;;;4891076;29;20041;-81
2021/11/13 00:34:00;;;;;;;28.33;20.80;;;9.50;97.70;;;;;;4906408;29;20043;-83
2021/11/13 00:36:27;;;;;;;30.80;21.60;;;9.40;97.80;;;;;;4906038;29;20037;-82
2021/11/13 00:38:54;;;;;;;28.43;20.70;;;9.40;97.80;;;;;;4890671;29;20035;-83
2021/11/13 00:41:20;;;;;;;34.50;23.33;;;9.40;97.80;;;;;;4907764;29;20052;-83
2021/11/13 00:43:47;;;;;;;32.53;22.57;;;9.40;97.90;;;;;;4906639;29;20045;-82
2021/11/13 00:46:13;;;;;;;32.33;21.37;;;9.50;98.10;;;;;;4908456;29;20044;-83
2021/11/13 00:48:39;;;;;;;29.87;22.00;;;9.50;98.10;;;;;;4907938;29;20091;-84
2021/11/13 00:51:05;;;;;;;31.17;21.23;;;9.50;98.10;;;;;;4891032;29;20100;-82
2021/11/13 00:53:32;;;;;;;31.73;21.87;;;9.50;98.10;;;;;;4890495;29;20037;-83
2021/11/13 00:55:59;;;;;;;31.07;21.47;;;9.60;98.20;;;;;;4907043;29;20508;-82
2021/11/13 00:58:25;;;;;;;29.90;21.80;;;9.60;98.20;;;;;;4903377;29;20037;-79
2021/11/13 01:00:51;;;;;;;31.33;21.60;;;9.60;98.30;;;;;;4900319;29;20144;-80
2021/11/13 01:03:16;;;;;;;35.50;22.23;;;9.60;98.40;;;;;;4899506;29;20046;-79
2021/11/13 01:05:43;;;;;;;34.87;22.60;;;9.60;98.40;;;;;;4898498;29;20124;-77
2021/11/13 01:08:08;;;;;;;34.63;22.30;;;9.60;98.50;;;;;;4899512;29;20123;-78
2021/11/13 01:10:34;;;;;;;34.03;22.50;;;9.60;98.60;;;;;;4898520;29;20084;-76
2021/11/13 01:13:01;;;;;;;35.97;23.13;;;9.50;98.70;;;;;;4883360;29;20045;-80
2021/11/13 01:15:28;;;;;;;34.23;23.37;;;9.50;98.80;;;;;;4899175;29;20045;-77
2021/11/13 01:17:55;;;;;;;38.30;24.43;;;9.50;98.90;;;;;;4900576;29;20048;-77
2021/11/13 01:20:22;;;;;;;37.83;24.97;;;9.60;98.90;;;;;;4900515;29;20049;-77
2021/11/13 01:22:50;;;;;;;33.13;22.37;;;9.50;98.90;;;;;;4883568;29;20041;-79
2021/11/13 01:25:16;;;;;;;35.50;24.20;;;9.60;99.00;;;;;;4899468;29;20414;-78
2021/11/13 01:27:42;;;;;;;39.63;24.70;;;9.60;99.00;;;;;;4900619;29;20051;-79
2021/11/13 01:30:10;;;;;;;45.47;27.13;;;9.50;99.10;;;;;;4899927;29;20048;-80
2021/11/13 01:32:37;;;;;;;37.10;25.70;;;9.50;99.20;;;;;;4900868;29;20075;-78
2021/11/13 01:35:05;;;;;;;40.23;25.80;;;9.40;99.30;;;;;;4901192;29;20089;-80
2021/11/13 01:37:31;;;;;;;38.77;25.50;;;9.40;99.40;;;;;;4902017;29;20032;-79
2021/11/13 01:39:57;;;;;;;48.87;27.73;;;9.50;99.50;;;;;;4903120;29;20458;-80
2021/11/13 01:42:25;;;;;;;35.73;24.33;;;9.40;99.50;;;;;;4903510;29;20049;-78
2021/11/13 01:44:53;;;;;;;41.00;26.70;;;9.40;99.60;;;;;;4904272;29;20041;-81
2021/11/13 01:47:21;;;;;;;36.57;24.70;;;9.50;99.60;;;;;;4903812;29;20052;-79
2021/11/13 01:49:47;;;;;;;38.93;24.37;;;9.50;99.60;;;;;;4901214;29;20036;-81
2021/11/13 01:52:15;;;;;;;39.00;24.07;;;9.50;99.60;;;;;;4905296;29;20040;-80
2021/11/13 01:54:42;;;;;;;38.93;23.43;;;9.60;99.70;;;;;;4903464;29;20518;-78
2021/11/13 01:57:19;;;;;;;37.87;25.07;;;9.70;99.60;;;;;;4909153;29;20047;-81
2021/11/13 01:59:46;;;;;;;35.57;23.13;;;9.70;99.50;;;;;;4908184;29;20047;-79
2021/11/13 02:02:12;;;;;;;33.17;22.37;;;9.70;99.50;;;;;;4907579;29;20036;-79
2021/11/13 02:04:37;;;;;;;34.27;22.40;;;9.80;99.50;;;;;;4907060;29;20073;-79
2021/11/13 02:07:03;;;;;;;33.27;22.37;;;9.80;99.50;;;;;;4905186;29;20040;-79
2021/11/13 02:09:30;;;;;;;35.97;23.27;;;9.80;99.50;;;;;;4890873;29;20067;-79
2021/11/13 02:11:55;;;;;;;36.53;23.10;;;9.90;99.50;;;;;;4905073;29;20085;-80
2021/11/13 02:14:21;;;;;;;33.97;21.77;;;9.90;99.40;;;;;;4891116;29;20438;-80
2021/11/13 02:16:47;;;;;;;31.10;21.30;;;10.00;99.40;;;;;;4904274;29;20609;-77
2021/11/13 02:19:13;;;;;;;31.20;20.70;;;10.00;99.40;;;;;;4902706;29;20097;-77
2021/11/13 02:21:38;;;;;;;31.97;20.93;;;10.00;99.40;;;;;;4885426;29;20041;-77
2021/11/13 02:24:05;;;;;;;32.57;21.80;;;10.00;99.40;;;;;;4885180;29;20096;-77
2021/11/13 02:26:31;;;;;;;31.97;21.93;;;10.10;99.40;;;;;;4901728;29;20041;-78
2021/11/13 02:28:57;;;;;;;36.87;23.20;;;10.10;99.40;;;;;;4900612;29;20037;-77
2021/11/13 02:31:34;;;;;;;33.83;22.27;;;10.10;99.40;;;;;;4901312;29;20508;-76
2021/11/13 02:33:59;;;;;;;33.97;21.80;;;10.10;99.40;;;;;;4901093;29;20072;-78
2021/11/13 02:36:25;;;;;;;32.57;22.27;;;10.10;99.40;;;;;;4884908;29;20072;-79
2021/11/13 02:38:55;;;;;;;27.20;19.67;;;10.10;99.50;;;;;;4901839;29;20032;-80
2021/11/13 02:41:22;;;;;;;32.70;20.87;;;10.10;99.50;;;;;;4900943;29;20351;-77
2021/11/13 02:43:49;;;;;;;35.83;22.03;;;10.10;99.60;;;;;;4901542;29;20481;-79
2021/11/13 02:46:15;;;;;;;33.57;22.13;;;10.10;99.50;;;;;;4900064;29;20510;-78
2021/11/13 02:48:42;;;;;;;32.93;22.47;;;10.10;99.60;;;;;;4901832;29;20040;-78
2021/11/13 02:51:10;;;;;;;35.10;21.63;;;10.10;99.60;;;;;;4900009;29;20120;-75
2021/11/13 02:53:37;;;;;;;29.20;20.53;;;10.20;99.60;;;;;;4900243;29;20072;-78
2021/11/13 02:56:06;;;;;;;33.03;22.27;;;10.20;99.70;;;;;;4900813;29;20382;-79
2021/11/13 02:58:33;;;;;;;29.50;21.53;;;10.20;99.70;;;;;;4900300;29;20036;-77
2021/11/13 03:01:12;;;;;;;27.30;18.90;;;10.20;99.70;;;;;;4900991;29;20045;-79
2021/11/13 03:03:39;;;;;;;31.40;20.03;;;10.20;99.70;;;;;;4902876;29;20032;-78
2021/11/13 03:06:11;;;;;;;27.23;18.17;;;10.20;99.70;;;;;;4889115;29;20497;-79
2021/11/13 03:08:39;;;;;;;25.05;18.25;;;10.20;99.80;;;;;;4904261;29;20068;-78
2021/11/13 03:11:07;;;;;;;26.90;18.60;;;10.30;99.80;;;;;;4903611;29;20422;-77
2021/11/13 03:13:35;;;;;;;26.30;18.80;;;10.30;99.70;;;;;;4900567;29;20083;-77
2021/11/13 03:16:04;;;;;;;23.30;18.07;;;10.30;99.70;;;;;;4900877;29;20048;-75
2021/11/13 03:18:30;;;;;;;25.67;18.37;;;10.30;99.70;;;;;;4900766;29;20039;-75
2021/11/13 03:20:57;;;;;;;23.63;17.37;;;10.30;99.80;;;;;;4900596;29;20045;-77
2021/11/13 03:23:24;;;;;;;25.20;17.50;;;10.30;99.80;;;;;;4899343;29;20069;-78
2021/11/13 03:25:58;;;;;;;20.63;16.73;;;10.30;99.90;;;;;;4899592;29;20035;-78
2021/11/13 03:28:29;;;;;;;23.00;16.43;;;10.30;99.90;;;;;;4901329;29;20044;-77
2021/11/13 03:30:55;;;;;;;24.73;19.47;;;10.30;99.90;;;;;;4899894;29;20048;-76
2021/11/13 03:33:21;;;;;;;22.53;16.93;;;10.20;99.90;;;;;;4899716;29;20052;-76
2021/11/13 03:35:47;;;;;;;24.60;18.13;;;10.20;99.90;;;;;;4900856;29;20036;-78
2021/11/13 03:38:15;;;;;;;20.57;16.83;;;10.20;99.90;;;;;;4900202;29;20040;-76
2021/11/13 03:40:43;;;;;;;22.07;16.40;;;10.20;99.90;;;;;;4901378;29;20045;-77
2021/11/13 03:43:11;;;;;;;21.73;16.20;;;10.20;99.90;;;;;;4901075;29;20040;-77
2021/11/13 03:45:38;;;;;;;21.23;17.47;;;10.20;99.90;;;;;;4900263;29;20036;-77
2021/11/13 03:48:04;;;;;;;18.70;15.57;;;10.20;99.90;;;;;;4900285;29;20528;-77
2021/11/13 03:50:31;;;;;;;21.37;15.43;;;10.30;99.90;;;;;;4901007;29;20114;-78
2021/11/13 03:52:56;;;;;;;21.20;16.17;;;10.30;99.90;;;;;;4902115;29;20075;-79
2021/11/13 03:55:23;;;;;;;20.93;17.00;;;10.20;99.90;;;;;;4901609;29;20072;-78
2021/11/13 03:57:49;;;;;;;25.97;16.90;;;10.20;99.90;;;;;;4901419;29;20040;-78
2021/11/13 04:00:15;;;;;;;23.73;17.10;;;10.20;99.90;;;;;;4900942;29;20378;-81
2021/11/13 04:02:44;;;;;;;24.30;17.23;;;10.30;99.90;;;;;;4885350;29;20068;-77
2021/11/13 04:05:10;;;;;;;26.43;17.60;;;10.30;99.90;;;;;;4884872;29;20481;-79
2021/11/13 04:07:36;;;;;;;27.13;18.90;;;10.30;99.90;;;;;;4885862;29;20105;-79
2021/11/13 04:10:06;;;;;;;24.53;18.13;;;10.20;99.90;;;;;;4901529;29;20040;-80
2021/11/13 04:12:32;;;;;;;22.60;17.67;;;10.30;99.90;;;;;;4900863;29;20044;-80
2021/11/13 04:14:58;;;;;;;22.13;17.10;;;10.30;99.90;;;;;;4901638;29;20033;-79
2021/11/13 04:17:24;;;;;;;22.90;17.90;;;10.30;99.90;;;;;;4903106;29;20048;-77
2021/11/13 04:19:49;;;;;;;25.23;19.17;;;10.40;99.90;;;;;;4900554;29;20064;-78
2021/11/13 04:22:15;;;;;;;23.20;17.70;;;10.40;99.90;;;;;;4899369;29;20482;-79
2021/11/13 04:24:41;;;;;;;19.77;16.57;;;10.40;99.90;;;;;;4902434;29;20073;-81
2021/11/13 04:27:07;;;;;;;24.10;17.87;;;10.40;99.90;;;;;;4902366;29;20040;-80
2021/11/13 04:29:33;;;;;;;25.27;17.27;;;10.50;99.90;;;;;;4901231;29;20073;-80
2021/11/13 04:31:58;;;;;;;23.70;17.93;;;10.50;99.90;;;;;;4901926;29;20036;-83
2021/11/13 04:34:25;;;;;;;26.60;18.47;;;10.50;99.90;;;;;;4886745;29;20426;-79
2021/11/13 04:36:54;;;;;;;21.00;17.30;;;10.50;99.90;;;;;;4899924;29;20116;-80
2021/11/13 04:39:22;;;;;;;21.87;17.03;;;10.50;99.90;;;;;;4899943;29;20436;-80
2021/11/13 04:41:48;;;;;;;20.57;15.83;;;10.50;99.90;;;;;;4902086;29;20064;-81
2021/11/13 04:44:14;;;;;;;21.27;16.73;;;10.60;99.90;;;;;;4884267;29;20466;-81
2021/11/13 04:46:39;;;;;;;25.63;17.20;;;10.60;99.90;;;;;;4885358;29;20048;-79
2021/11/13 04:49:05;;;;;;;19.33;14.97;;;10.60;99.90;;;;;;4902921;29;20041;-87
2021/11/13 04:51:31;;;;;;;25.30;17.47;;;10.60;99.90;;;;;;4890986;29;20481;-83
2021/11/13 04:53:57;;;;;;;23.13;16.43;;;10.50;99.90;;;;;;4900774;29;20423;-79
2021/11/13 04:56:22;;;;;;;19.60;15.43;;;10.50;99.90;;;;;;4899979;29;20477;-79
2021/11/13 04:58:48;;;;;;;23.70;17.47;;;10.50;99.90;;;;;;4884615;29;20481;-81
2021/11/13 05:01:14;;;;;;;18.77;13.93;;;10.50;99.90;;;;;;4899490;29;20057;-80
2021/11/13 05:03:40;;;;;;;19.30;15.87;;;10.50;99.90;;;;;;4901981;29;20393;-81
2021/11/13 05:06:05;;;;;;;21.07;15.10;;;10.50;99.90;;;;;;4902133;29;20378;-78
2021/11/13 05:08:31;;;;;;;18.53;14.30;;;10.50;99.90;;;;;;4900078;29;20043;-79
2021/11/13 05:10:57;;;;;;;16.30;13.47;;;10.60;99.90;;;;;;4901585;29;20049;-79
2021/11/13 05:13:23;;;;;;;17.07;14.20;;;10.60;99.90;;;;;;4904131;29;20119;-81
2021/11/13 05:15:50;;;;;;;17.37;15.20;;;10.60;99.90;;;;;;4904545;29;20443;-81
2021/11/13 05:18:16;;;;;;;18.73;14.50;;;10.60;99.90;;;;;;4902556;29;20096;-80
2021/11/13 05:20:41;;;;;;;15.77;14.07;;;10.60;99.90;;;;;;4903847;29;20438;-80
2021/11/13 05:23:07;;;;;;;16.73;14.10;;;10.60;99.90;;;;;;4886411;29;20040;-80
2021/11/13 05:25:33;;;;;;;16.93;13.03;;;10.60;99.90;;;;;;4902809;29;20044;-78
2021/11/13 05:27:59;;;;;;;15.60;13.20;;;10.60;99.90;;;;;;4901729;29;20085;-78
2021/11/13 05:30:26;;;;;;;14.47;12.47;;;10.60;99.90;;;;;;4903541;29;20040;-79
2021/11/13 05:32:53;;;;;;;15.80;13.10;;;10.60;99.90;;;;;;4901326;29;20088;-79
2021/11/13 05:35:19;;;;;;;14.80;12.20;;;10.70;99.90;;;;;;4898462;29;20500;-78
2021/11/13 05:37:48;;;;;;;12.97;11.60;;;10.70;99.90;;;;;;4899521;29;20046;-79
2021/11/13 05:40:14;;;;;;;12.63;11.33;;;10.70;99.90;;;;;;4869739;29;20067;-80
2021/11/13 05:42:42;;;;;;;12.73;11.30;;;10.80;99.90;;;;;;4900046;29;20052;-79
2021/11/13 05:45:09;;;;;;;12.47;11.00;;;10.70;99.90;;;;;;4897820;29;20378;-81
2021/11/13 05:47:35;;;;;;;15.23;11.03;;;10.70;99.90;;;;;;4896850;29;20047;-80
2021/11/13 05:50:01;;;;;;;13.87;11.93;;;10.70;99.90;;;;;;4881367;29;20390;-79
2021/11/13 05:52:27;;;;;;;12.53;11.20;;;10.70;99.90;;;;;;4897369;29;20043;-80
2021/11/13 05:54:52;;;;;;;12.57;10.57;;;10.70;99.90;;;;;;4896793;29;20072;-80
2021/11/13 05:57:18;;;;;;;13.33;11.80;;;10.70;99.90;;;;;;4896604;29;20048;-80
2021/11/13 05:59:44;;;;;;;14.17;10.97;;;10.70;99.90;;;;;;4881276;29;20057;-81
2021/11/13 06:02:10;;;;;;;12.13;10.67;;;10.70;99.90;;;;;;4881956;29;20541;-84
2021/11/13 06:04:35;;;;;;;11.80;10.60;;;10.70;99.90;;;;;;4897763;29;20527;-80
2021/11/13 06:07:02;;;;;;;14.57;10.93;;;10.70;99.90;;;;;;4897039;29;20382;-81
2021/11/13 06:09:27;;;;;;;11.37;10.27;;;10.70;99.90;;;;;;4881753;29;20041;-81
2021/11/13 06:11:53;;;;;;;11.00;9.80;;;10.70;99.90;;;;;;4896554;29;20048;-80
2021/11/13 06:14:19;;;;;;;13.23;11.23;;;10.70;99.90;;;;;;4896746;29;20037;-80
2021/11/13 06:16:45;;;;;;;13.30;10.70;;;10.80;99.90;;;;;;4897957;29;20386;-78
2021/11/13 06:19:10;;;;;;;11.03;9.80;;;10.70;99.80;;;;;;4881044;29;20044;-80
2021/11/13 06:21:36;;;;;;;11.47;9.83;;;10.80;99.90;;;;;;4912470;29;20055;-77
2021/11/13 06:24:02;;;;;;;12.30;10.80;;;10.70;99.90;;;;;;4896586;29;20127;-76
2021/11/13 06:26:27;;;;;;;12.30;10.60;;;10.70;99.90;;;;;;4898044;29;20123;-77
2021/11/13 06:28:53;;;;;;;11.47;10.07;;;10.70;99.90;;;;;;4897745;29;20041;-77
2021/11/13 06:31:19;;;;;;;11.30;9.30;;;10.70;99.90;;;;;;4896266;29;20065;-78
2021/11/13 06:33:44;;;;;;;11.13;9.60;;;10.80;99.90;;;;;;4896458;29;20051;-76
2021/11/13 06:36:10;;;;;;;11.40;10.17;;;10.80;99.90;;;;;;4898086;29;20047;-76
2021/11/13 06:38:36;;;;;;;10.43;9.37;;;10.80;99.90;;;;;;4898174;29;20096;-77
2021/11/13 06:41:02;;;;;;;11.20;9.90;;;10.80;99.90;;;;;;4927695;29;20096;-77
2021/11/13 06:43:27;;;;;;;11.20;10.00;;;10.80;99.90;;;;;;4899088;29;20039;-76
2021/11/13 06:45:53;;;;;;;10.17;9.17;;;10.80;99.90;;;;;;4884241;29;20482;-76
2021/11/13 06:48:20;;;;;;;11.60;10.03;;;10.80;99.90;;;;;;4931716;29;20105;-77
2021/11/13 06:50:46;;;;;;;12.07;10.60;;;10.80;99.90;;;;;;4899962;29;20493;-77
2021/11/13 06:53:13;;;;;;;10.07;9.07;;;10.80;99.90;;;;;;4900004;29;20029;-77
2021/11/13 06:55:39;;;;;;;10.70;9.60;;;10.80;99.90;;;;;;4899591;29;20033;-76
2021/11/13 06:58:05;;;;;;;11.00;9.90;;;10.80;99.90;;;;;;4900956;29;20048;-77
2021/11/13 07:00:31;;;;;;;10.43;8.87;;;10.80;99.90;;;;;;4930812;29;20389;-77
2021/11/13 07:03:00;;;;;;;10.47;8.87;;;10.90;99.90;;;;;;4900614;29;20040;-76
2021/11/13 07:05:27;;;;;;;9.57;8.57;;;10.90;99.90;;;;;;4914875;29;20040;-76
2021/11/13 07:07:54;;;;;;;10.23;9.30;;;10.90;99.90;;;;;;4900749;29;20039;-78
2021/11/13 07:10:21;;;;;;;11.07;9.87;;;10.90;99.90;;;;;;4899261;29;20048;-77
2021/11/13 07:12:47;;;;;;;10.97;9.77;;;10.90;99.90;;;;;;4915018;29;20060;-76
2021/11/13 07:15:16;;;;;;;9.57;8.67;;;10.80;99.90;;;;;;4914492;29;20486;-76
2021/11/13 07:17:42;;;;;;;9.33;8.43;;;10.80;99.90;;;;;;4900514;29;20113;-76
2021/11/13 07:20:09;;;;;;;9.50;8.60;;;10.90;99.90;;;;;;4900415;29;20044;-76
2021/11/13 07:22:36;;;;;;;9.63;8.27;;;10.90;99.90;;;;;;4900156;29;20177;-77
2021/11/13 07:25:02;;;;;;;10.33;9.23;;;10.90;99.90;;;;;;4899095;29;20036;-76
2021/11/13 07:27:28;;;;;;;9.27;8.27;;;10.90;99.90;;;;;;4930547;29;20060;-77
2021/11/13 07:30:01;;;;;;;9.20;8.23;;;10.90;99.90;;;;;;4900034;29;20473;-78
2021/11/13 07:32:28;;;;;;;10.87;8.23;;;10.90;99.90;;;;;;4898938;29;20496;-77
2021/11/13 07:34:54;;;;;;;12.70;9.73;;;10.90;99.90;;;;;;4930426;29;20139;-76
2021/11/13 07:37:21;;;;;;;9.30;8.40;;;10.90;99.90;;;;;;4900024;29;20044;-81
2021/11/13 07:39:46;;;;;;;9.50;8.50;;;11.00;99.90;;;;;;4899748;29;20040;-75
2021/11/13 07:42:12;;;;;;;10.30;8.63;;;11.00;99.90;;;;;;4899600;29;20120;-77
2021/11/13 07:44:38;;;;;;;12.77;8.53;;;11.00;99.90;;;;;;4898795;29;20343;-76
2021/11/13 07:47:04;;;;;;;9.90;8.90;;;11.00;99.90;;;;;;4900335;29;20037;-77
2021/11/13 07:49:29;;;;;;;10.10;9.10;;;11.00;99.90;;;;;;4929837;29;20493;-77
2021/11/13 07:51:55;;;;;;;11.43;9.80;;;11.00;99.90;;;;;;4899074;29;20032;-78
2021/11/13 07:54:21;;;;;;;11.40;9.63;;;11.00;99.90;;;;;;4898491;29;20450;-81
2021/11/13 07:56:48;;;;;;;10.53;9.43;;;11.10;99.90;;;;;;4914613;29;20116;-78
2021/11/13 07:59:14;;;;;;;11.60;9.13;;;11.10;99.90;;;;;;4899691;29;20032;-78
2021/11/13 08:01:41;;;;;;;12.10;9.03;;;11.20;99.90;;;;;;4913988;29;20045;-77
2021/11/13 08:04:07;;;;;;;9.80;8.87;;;11.20;99.90;;;;;;4913974;29;20041;-80
2021/11/13 08:06:33;;;;;;;10.13;9.00;;;11.20;99.90;;;;;;4914014;29;20383;-82
2021/11/13 08:08:59;;;;;;;9.20;8.20;;;11.20;99.90;;;;;;4913772;29;20379;-81
2021/11/13 08:11:24;;;;;;;10.33;8.87;;;11.30;99.90;;;;;;4898274;29;20051;-82
2021/11/13 08:13:50;;;;;;;11.27;9.60;;;11.30;99.90;;;;;;4897956;29;20475;-83
2021/11/13 08:16:16;;;;;;;11.13;8.43;;;11.30;99.90;;;;;;4898957;29;20405;-83
2021/11/13 08:18:42;;;;;;;9.70;8.60;;;11.30;99.90;;;;;;4929384;29;20080;-82
2021/11/13 08:21:08;;;;;;;9.57;8.43;;;11.40;99.90;;;;;;4913594;29;20072;-82
2021/11/13 08:23:34;;;;;;;12.87;8.37;;;11.50;99.90;;;;;;4898664;29;20044;-81
2021/11/13 08:26:00;;;;;;;9.33;8.43;;;11.60;99.90;;;;;;4898393;29;20045;-81
2021/11/13 08:28:26;;;;;;;10.03;8.00;;;11.60;99.90;;;;;;4898183;29;20434;-81
2021/11/13 08:30:53;;;;;;;8.80;7.87;;;11.60;99.90;;;;;;4913075;29;20089;-82
2021/11/13 08:33:19;;;;;;;9.80;8.73;;;11.70;99.80;;;;;;4913675;29;20109;-82
2021/11/13 08:35:47;;;;;;;9.83;8.90;;;11.80;99.80;;;;;;4913636;29;20482;-82
2021/11/13 08:38:17;;;;;;;10.23;8.80;;;11.90;99.70;;;;;;4897742;29;20039;-81
2021/11/13 08:40:43;;;;;;;9.63;8.73;;;11.90;99.50;;;;;;4897324;29;20045;-81
2021/11/13 08:43:10;;;;;;;9.20;8.27;;;11.90;99.50;;;;;;4913399;29;20045;-82
2021/11/13 08:45:36;;;;;;;8.70;7.87;;;11.90;99.50;;;;;;4897518;29;20338;-82
2021/11/13 08:48:02;;;;;;;9.27;8.37;;;11.90;99.20;;;;;;4897379;29;20039;-82
2021/11/13 08:50:30;;;;;;;9.67;8.47;;;11.80;99.40;;;;;;4897422;29;20087;-83
2021/11/13 08:53:01;;;;;;;8.60;7.77;;;11.90;99.60;;;;;;4897852;29;20048;-82
2021/11/13 08:55:29;;;;;;;9.90;7.60;;;12.00;99.50;;;;;;4897623;29;20040;-82
2021/11/13 08:57:55;;;;;;;26.60;10.53;;;12.00;99.50;;;;;;4913113;29;20037;-83
2021/11/13 09:00:34;;;;;;;27.70;11.17;;;12.00;99.50;;;;;;4897577;29;20064;-83
2021/11/13 09:03:03;;;;;;;34.10;13.67;;;12.00;99.40;;;;;;4898660;29;20092;-83
2021/11/13 09:05:29;;;;;;;44.40;15.33;;;12.00;99.50;;;;;;4897642;29;20119;-83
2021/11/13 09:07:58;;;;;;;30.37;12.80;;;12.10;99.60;;;;;;4897017;29;20033;-83
2021/11/13 09:10:25;;;;;;;21.00;11.90;;;12.20;99.50;;;;;;4898593;29;20100;-82
2021/11/13 09:12:51;;;;;;;18.23;9.67;;;12.20;99.50;;;;;;4896820;29;20480;-83
2021/11/13 09:15:24;;;;;;;15.67;9.83;;;12.30;99.30;;;;;;4912823;29;20036;-82
2021/11/13 09:17:51;;;;;;;14.60;9.23;;;12.30;99.20;;;;;;4897060;29;20068;-83
2021/11/13 09:20:18;;;;;;;13.67;9.10;;;12.40;99.20;;;;;;4898272;29;20055;-80
2021/11/13 09:22:43;;;;;;;11.50;9.07;;;12.50;99.20;;;;;;4912609;29;20055;-81
2021/11/13 09:25:09;;;;;;;9.50;8.60;;;12.60;99.10;;;;;;4896910;29;20036;-80
2021/11/13 09:27:41;;;;;;;10.43;8.25;;;12.70;98.90;;;;;;4928642;29;20101;-82
2021/11/13 09:30:10;;;;;;;12.10;8.95;;;12.70;98.80;;;;;;4899072;29;20042;-81
2021/11/13 09:32:36;;;;;;;10.90;8.73;;;12.70;98.70;;;;;;4897187;29;20029;-82
2021/11/13 09:35:02;;;;;;;12.85;8.98;;;12.80;98.60;;;;;;4896738;29;20041;-81
2021/11/13 09:37:29;;;;;;;9.18;8.18;;;12.80;98.40;;;;;;4896885;29;20036;-83
2021/11/13 09:39:55;;;;;;;11.00;8.95;;;12.70;98.60;;;;;;4896787;29;20092;-81
2021/11/13 09:42:22;;;;;;;12.07;8.73;;;12.70;98.40;;;;;;4912658;29;20041;-81
2021/11/13 09:44:48;;;;;;;12.27;9.05;;;12.80;98.50;;;;;;4896420;29;20045;-81
2021/11/13 09:47:14;;;;;;;10.30;9.07;;;12.80;98.50;;;;;;4928050;29;20513;-82
2021/11/13 09:49:40;;;;;;;11.45;9.10;;;12.90;98.40;;;;;;4896475;29;20061;-81
2021/11/13 09:52:07;;;;;;;12.13;8.45;;;13.00;98.40;;;;;;4927852;29;20478;-81
2021/11/13 09:54:32;;;;;;;11.63;8.77;;;13.00;98.30;;;;;;4914042;29;20143;-81
2021/11/13 09:56:58;;;;;;;11.80;8.82;;;13.10;98.10;;;;;;4896602;29;20561;-81
2021/11/13 09:59:24;;;;;;;10.65;8.63;;;13.10;98.00;;;;;;4912963;29;20045;-81
2021/11/13 10:01:51;;;;;;;11.52;9.20;;;13.00;98.00;;;;;;4912349;29;20381;-81
2021/11/13 10:04:17;;;;;;;11.40;9.57;;;13.00;98.00;;;;;;4928393;29;20093;-81
2021/11/13 10:06:43;;;;;;;10.95;9.30;;;12.90;98.00;;;;;;4898081;29;20397;-82
2021/11/13 10:09:08;;;;;;;11.70;8.85;;;13.00;98.00;;;;;;4897862;29;20079;-81
2021/11/13 10:11:39;;;;;;;11.85;9.30;;;12.90;98.00;;;;;;4896172;29;20087;-81
2021/11/13 10:14:06;;;;;;;10.57;8.70;;;12.90;98.00;;;;;;4896408;29;20543;-83
2021/11/13 10:16:35;;;;;;;10.20;9.18;;;13.00;98.10;;;;;;4929407;29;20075;-82
2021/11/13 10:19:18;;;;;;;8.52;7.72;;;13.00;98.10;;;;;;4900319;29;20040;-79
2021/11/13 10:21:47;;;;;;;11.65;8.82;;;13.00;98.00;;;;;;4932131;29;20051;-83
2021/11/13 10:24:28;;;;;;;10.30;8.70;;;13.00;98.00;;;;;;4902004;29;20083;-83
2021/11/13 10:26:58;;;;;;;12.63;9.50;;;13.00;97.90;;;;;;4915845;29;20056;-80
2021/11/13 10:29:30;;;;;;;11.68;9.20;;;13.00;97.90;;;;;;4899893;29;20036;-81
2021/11/13 10:32:01;;;;;;;12.73;9.38;;;13.00;98.00;;;;;;4904111;29;20044;-81
2021/11/13 10:34:34;;;;;;;11.27;8.75;;;13.00;98.00;;;;;;4903357;29;20037;-82
2021/11/13 10:37:09;;;;;;;12.65;9.70;;;13.10;98.00;;;;;;4902373;29;20032;-82
2021/11/13 10:39:38;;;;;;;11.70;9.65;;;13.10;97.90;;;;;;4900731;29;20042;-81
2021/11/13 10:42:12;;;;;;;11.85;9.85;;;13.10;97.90;;;;;;4902108;29;20032;-80
2021/11/13 10:44:44;;;;;;;10.07;8.98;;;13.10;98.00;;;;;;4901456;29;20040;-81
2021/11/13 10:47:15;;;;;;;13.82;9.75;;;13.10;98.20;;;;;;4901284;29;20060;-81
2021/11/13 10:49:41;;;;;;;18.08;10.00;;;13.20;98.10;;;;;;4901408;29;20036;-81
2021/11/13 10:52:08;;;;;;;10.55;9.45;;;13.20;98.10;;;;;;4884870;29;20040;-82
2021/11/13 10:54:34;;;;;;;12.63;8.98;;;13.30;98.00;;;;;;4899752;29;20494;-81
2021/11/13 10:57:06;;;;;;;12.30;9.85;;;13.40;97.90;;;;;;4900790;29;20047;-81
2021/11/13 10:59:43;;;;;;;12.02;9.95;;;13.50;97.70;;;;;;4899724;29;20614;-80
2021/11/13 11:02:10;;;;;;;10.25;9.20;;;13.40;97.60;;;;;;4899682;29;20047;-81
2021/11/13 11:04:39;;;;;;;11.15;9.95;;;13.50;97.60;;;;;;4899647;29;20036;-80
2021/11/13 11:07:06;;;;;;;13.65;10.13;;;13.50;97.60;;;;;;4900533;29;20046;-80
2021/11/13 11:09:46;;;;;;;11.45;10.32;;;13.50;97.50;;;;;;4900691;29;20033;-79
2021/11/13 11:12:21;;;;;;;11.57;9.40;;;13.40;97.50;;;;;;4899578;29;20135;-80
2021/11/13 11:14:51;;;;;;;13.40;11.50;;;13.40;97.70;;;;;;4930774;29;20036;-81
2021/11/13 11:17:24;;;;;;;12.18;10.73;;;13.40;97.70;;;;;;4899282;29;20033;-79
2021/11/13 11:19:52;;;;;;;13.95;11.73;;;13.30;97.80;;;;;;4899366;29;20096;-79
2021/11/13 11:22:27;;;;;;;15.70;12.60;;;13.30;97.80;;;;;;4900037;29;20037;-78
2021/11/13 11:24:54;;;;;;;14.02;12.15;;;13.30;97.80;;;;;;4899861;29;20037;-79
2021/11/13 11:27:29;;;;;;;13.40;12.00;;;13.40;97.80;;;;;;4899460;29;20029;-79
2021/11/13 11:30:15;;;;;;;13.50;12.07;;;13.30;97.90;;;;;;4900201;29;20056;-80
2021/11/13 11:32:47;;;;;;;12.82;11.13;;;13.30;97.80;;;;;;4900437;29;20050;-80
2021/11/13 11:35:39;;;;;;;13.70;11.80;;;13.20;97.80;;;;;;4899508;29;20078;-81
2021/11/13 11:38:11;;;;;;;15.45;12.93;;;13.30;97.90;;;;;;4900243;29;20073;-80
2021/11/13 11:40:45;;;;;;;15.80;12.90;;;13.30;97.90;;;;;;4900482;29;20454;-81
2021/11/13 11:43:13;;;;;;;13.60;12.20;;;13.30;97.90;;;;;;4900290;29;20060;-80
2021/11/13 11:45:41;;;;;;;13.85;12.48;;;13.30;97.90;;;;;;4900533;29;20037;-80
2021/11/13 11:48:12;;;;;;;14.10;12.70;;;13.30;98.00;;;;;;4898446;29;20036;-79
2021/11/13 11:50:38;;;;;;;14.30;12.38;;;13.30;98.00;;;;;;4898885;29;20040;-80
2021/11/13 11:53:10;;;;;;;14.05;12.40;;;13.40;98.00;;;;;;4900029;29;20041;-79
2021/11/13 11:55:38;;;;;;;14.07;12.50;;;13.50;97.90;;;;;;4898034;29;20064;-79
2021/11/13 11:58:12;;;;;;;13.80;12.40;;;13.50;97.90;;;;;;4899588;29;20040;-79
2021/11/13 12:00:39;;;;;;;14.10;12.60;;;13.60;97.80;;;;;;4898566;29;20047;-80
2021/11/13 12:03:05;;;;;;;13.60;12.27;;;13.80;97.80;;;;;;4883034;29;20052;-81
2021/11/13 12:05:36;;;;;;;15.48;13.80;;;13.90;97.60;;;;;;4883441;29;20374;-80
2021/11/13 12:08:17;;;;;;;17.75;14.85;;;14.00;97.50;;;;;;4898387;29;20123;-81
2021/11/13 12:10:44;;;;;;;16.88;14.90;;;14.20;97.40;;;;;;4899722;29;20128;-79
2021/11/13 12:13:15;;;;;;;15.00;13.45;;;14.30;97.20;;;;;;4897809;29;20060;-80
2021/11/13 12:15:49;;;;;;;14.55;13.05;;;14.30;96.90;;;;;;4898040;29;20071;-80
2021/11/13 12:18:20;;;;;;;15.18;13.63;;;14.30;96.80;;;;;;4897777;29;20050;-80
2021/11/13 12:20:51;;;;;;;17.20;14.88;;;14.30;96.80;;;;;;4899088;29;20068;-81
2021/11/13 12:23:39;;;;;;;15.98;14.32;;;14.40;96.80;;;;;;4899915;29;20064;-80
2021/11/13 12:26:11;;;;;;;15.88;13.60;;;14.40;96.70;;;;;;4898064;29;20088;-81
2021/11/13 12:28:51;;;;;;;15.57;13.63;;;14.40;96.60;;;;;;4899087;29;20037;-81
2021/11/13 12:31:23;;;;;;;16.38;14.63;;;14.40;96.60;;;;;;4898024;29;20047;-81
2021/11/13 12:34:16;;;;;;;14.07;12.40;;;14.40;96.50;;;;;;4897963;29;20039;-80
2021/11/13 12:37:03;;;;;;;13.85;12.43;;;14.30;96.50;;;;;;4896027;29;20043;-81